sensor_id;sensor_type;location;lat;lon;timestamp;temperature;humidity
53208;DHT22;39093;52.788;6.940;2023-05-18T00:00:01;8.70;97.70
53208;DHT22;39093;52.788;6.940;2023-05-18T00:02:29;8.70;97.80
53208;DHT22;39093;52.788;6.940;2023-05-18T00:04:56;8.60;97.70
53208;DHT22;39093;52.788;6.940;2023-05-18T00:07:28;8.60;98.20
53208;DHT22;39093;52.788;6.940;2023-05-18T00:10:00;8.60;98.20
53208;DHT22;39093;52.788;6.940;2023-05-18T00:12:27;8.50;98.70
53208;DHT22;39093;52.788;6.940;2023-05-18T00:14:54;8.50;99.30
53208;DHT22;39093;52.788;6.940;2023-05-18T00:17:21;8.50;99.80
53208;DHT22;39093;52.788;6.940;2023-05-18T00:19:49;8.40;99.90
53208;DHT22;39093;52.788;6.940;2023-05-18T00:22:16;8.40;99.90
53208;DHT22;39093;52.788;6.940;2023-05-18T00:24:47;8.30;99.90
53208;DHT22;39093;52.788;6.940;2023-05-18T00:27:14;8.30;99.90
53208;DHT22;39093;52.788;6.940;2023-05-18T00:29:41;8.30;99.90
53208;DHT22;39093;52.788;6.940;2023-05-18T00:32:08;8.30;99.90
53208;DHT22;39093;52.788;6.940;2023-05-18T00:34:34;8.10;99.90
53208;DHT22;39093;52.788;6.940;2023-05-18T00:37:01;8.10;99.90
53208;DHT22;39093;52.788;6.940;2023-05-18T00:39:28;8.10;99.90
53208;DHT22;39093;52.788;6.940;2023-05-18T00:41:55;8.10;99.90
53208;DHT22;39093;52.788;6.940;2023-05-18T00:44:22;8.00;99.90
53208;DHT22;39093;52.788;6.940;2023-05-18T00:46:49;8.10;99.90
53208;DHT22;39093;52.788;6.940;2023-05-18T00:49:16;8.00;99.90
53208;DHT22;39093;52.788;6.940;2023-05-18T00:51:44;8.00;99.90
53208;DHT22;39093;52.788;6.940;2023-05-18T00:54:11;7.90;99.90
53208;DHT22;39093;52.788;6.940;2023-05-18T00:56:39;7.90;99.90
53208;DHT22;39093;52.788;6.940;2023-05-18T00:59:12;7.90;99.90
53208;DHT22;39093;52.788;6.940;2023-05-18T01:01:39;7.80;99.90
53208;DHT22;39093;52.788;6.940;2023-05-18T01:04:09;7.80;99.90
53208;DHT22;39093;52.788;6.940;2023-05-18T01:06:40;7.80;99.90
53208;DHT22;39093;52.788;6.940;2023-05-18T01:09:09;7.70;99.90
53208;DHT22;39093;52.788;6.940;2023-05-18T01:14:45;7.60;99.90
53208;DHT22;39093;52.788;6.940;2023-05-18T01:17:28;7.60;99.90
53208;DHT22;39093;52.788;6.940;2023-05-18T01:20:03;7.50;99.90
53208;DHT22;39093;52.788;6.940;2023-05-18T01:28:20;7.40;99.90
53208;DHT22;39093;52.788;6.940;2023-05-18T01:30:52;7.40;99.90
53208;DHT22;39093;52.788;6.940;2023-05-18T01:33:19;7.50;99.90
53208;DHT22;39093;52.788;6.940;2023-05-18T01:35:46;7.30;99.90
53208;DHT22;39093;52.788;6.940;2023-05-18T01:38:20;7.20;99.90
53208;DHT22;39093;52.788;6.940;2023-05-18T01:41:23;7.20;99.90
53208;DHT22;39093;52.788;6.940;2023-05-18T01:49:45;7.10;99.90
53208;DHT22;39093;52.788;6.940;2023-05-18T01:52:23;7.10;99.90
53208;DHT22;39093;52.788;6.940;2023-05-18T01:54:57;7.10;99.90
53208;DHT22;39093;52.788;6.940;2023-05-18T01:57:26;7.00;99.90
53208;DHT22;39093;52.788;6.940;2023-05-18T01:59:54;7.00;99.90
53208;DHT22;39093;52.788;6.940;2023-05-18T02:02:22;6.90;99.90
53208;DHT22;39093;52.788;6.940;2023-05-18T02:04:49;6.90;99.90
53208;DHT22;39093;52.788;6.940;2023-05-18T02:07:16;6.90;99.90
53208;DHT22;39093;52.788;6.940;2023-05-18T02:09:43;6.90;99.90
53208;DHT22;39093;52.788;6.940;2023-05-18T02:12:10;6.80;99.90
53208;DHT22;39093;52.788;6.940;2023-05-18T02:14:37;6.80;99.90
53208;DHT22;39093;52.788;6.940;2023-05-18T02:17:04;6.80;99.90
53208;DHT22;39093;52.788;6.940;2023-05-18T02:19:33;6.80;99.90
53208;DHT22;39093;52.788;6.940;2023-05-18T02:22:05;6.70;99.90
53208;DHT22;39093;52.788;6.940;2023-05-18T02:24:33;6.70;99.90
53208;DHT22;39093;52.788;6.940;2023-05-18T02:27:00;6.80;99.90
53208;DHT22;39093;52.788;6.940;2023-05-18T02:29:27;6.70;99.90
53208;DHT22;39093;52.788;6.940;2023-05-18T02:31:54;6.70;99.90
53208;DHT22;39093;52.788;6.940;2023-05-18T02:34:21;6.60;99.90
53208;DHT22;39093;52.788;6.940;2023-05-18T02:36:48;6.60;99.90
53208;DHT22;39093;52.788;6.940;2023-05-18T02:39:15;6.50;99.90
53208;DHT22;39093;52.788;6.940;2023-05-18T02:41:42;6.50;99.90
53208;DHT22;39093;52.788;6.940;2023-05-18T02:44:09;6.50;99.90
53208;DHT22;39093;52.788;6.940;2023-05-18T02:46:38;6.50;99.90
53208;DHT22;39093;52.788;6.940;2023-05-18T02:49:04;6.40;99.90
53208;DHT22;39093;52.788;6.940;2023-05-18T02:51:31;6.40;99.90
53208;DHT22;39093;52.788;6.940;2023-05-18T02:53:58;6.40;99.90
53208;DHT22;39093;52.788;6.940;2023-05-18T02:56:25;6.40;99.90
53208;DHT22;39093;52.788;6.940;2023-05-18T02:58:54;6.40;99.90
53208;DHT22;39093;52.788;6.940;2023-05-18T03:01:24;6.40;99.90
53208;DHT22;39093;52.788;6.940;2023-05-18T03:03:53;6.30;99.90
53208;DHT22;39093;52.788;6.940;2023-05-18T03:06:20;6.30;99.90
53208;DHT22;39093;52.788;6.940;2023-05-18T03:08:52;6.40;99.90
53208;DHT22;39093;52.788;6.940;2023-05-18T03:11:22;6.30;99.90
53208;DHT22;39093;52.788;6.940;2023-05-18T03:13:49;6.30;99.90
53208;DHT22;39093;52.788;6.940;2023-05-18T03:16:16;6.30;99.90
53208;DHT22;39093;52.788;6.940;2023-05-18T03:18:44;6.30;99.90
53208;DHT22;39093;52.788;6.940;2023-05-18T03:21:11;6.30;99.90
53208;DHT22;39093;52.788;6.940;2023-05-18T03:23:42;6.30;99.90
53208;DHT22;39093;52.788;6.940;2023-05-18T03:26:09;6.30;99.90
53208;DHT22;39093;52.788;6.940;2023-05-18T03:28:37;6.20;99.90
53208;DHT22;39093;52.788;6.940;2023-05-18T03:31:04;6.30;99.90
53208;DHT22;39093;52.788;6.940;2023-05-18T03:33:32;6.20;99.90
53208;DHT22;39093;52.788;6.940;2023-05-18T03:36:03;6.10;99.90
53208;DHT22;39093;52.788;6.940;2023-05-18T03:38:30;6.10;99.90
53208;DHT22;39093;52.788;6.940;2023-05-18T03:40:57;6.10;99.90
53208;DHT22;39093;52.788;6.940;2023-05-18T03:43:24;6.00;99.90
53208;DHT22;39093;52.788;6.940;2023-05-18T03:45:51;6.10;99.90
53208;DHT22;39093;52.788;6.940;2023-05-18T03:48:19;6.10;99.90
53208;DHT22;39093;52.788;6.940;2023-05-18T03:50:47;6.10;99.90
53208;DHT22;39093;52.788;6.940;2023-05-18T03:53:15;6.00;99.90
53208;DHT22;39093;52.788;6.940;2023-05-18T03:55:45;6.10;99.90
53208;DHT22;39093;52.788;6.940;2023-05-18T03:58:12;6.20;99.90
53208;DHT22;39093;52.788;6.940;2023-05-18T04:00:39;6.20;99.90
53208;DHT22;39093;52.788;6.940;2023-05-18T04:03:06;6.10;99.90
53208;DHT22;39093;52.788;6.940;2023-05-18T04:05:33;6.30;99.90
53208;DHT22;39093;52.788;6.940;2023-05-18T04:08:00;6.20;99.90
53208;DHT22;39093;52.788;6.940;2023-05-18T04:10:27;6.20;99.90
53208;DHT22;39093;52.788;6.940;2023-05-18T04:12:54;6.30;99.90
53208;DHT22;39093;52.788;6.940;2023-05-18T04:15:21;6.30;99.90
53208;DHT22;39093;52.788;6.940;2023-05-18T04:17:51;6.30;99.90
53208;DHT22;39093;52.788;6.940;2023-05-18T04:20:19;6.30;99.90
53208;DHT22;39093;52.788;6.940;2023-05-18T04:22:47;6.30;99.90
53208;DHT22;39093;52.788;6.940;2023-05-18T04:25:14;6.40;99.90
53208;DHT22;39093;52.788;6.940;2023-05-18T04:27:42;6.30;99.90
53208;DHT22;39093;52.788;6.940;2023-05-18T04:30:12;6.40;99.90
53208;DHT22;39093;52.788;6.940;2023-05-18T04:32:39;6.40;99.90
53208;DHT22;39093;52.788;6.940;2023-05-18T04:35:09;6.40;99.90
53208;DHT22;39093;52.788;6.940;2023-05-18T04:37:37;6.40;99.90
53208;DHT22;39093;52.788;6.940;2023-05-18T04:40:10;6.40;99.90
53208;DHT22;39093;52.788;6.940;2023-05-18T04:42:43;6.40;99.90
53208;DHT22;39093;52.788;6.940;2023-05-18T04:45:18;6.50;99.90
53208;DHT22;39093;52.788;6.940;2023-05-18T04:47:47;6.50;99.90
53208;DHT22;39093;52.788;6.940;2023-05-18T04:50:20;6.50;99.90
53208;DHT22;39093;52.788;6.940;2023-05-18T04:52:50;6.60;99.90
53208;DHT22;39093;52.788;6.940;2023-05-18T04:55:19;6.60;99.90
53208;DHT22;39093;52.788;6.940;2023-05-18T04:57:53;6.60;99.90
53208;DHT22;39093;52.788;6.940;2023-05-18T05:00:23;6.70;99.90
53208;DHT22;39093;52.788;6.940;2023-05-18T05:02:52;6.70;99.90
53208;DHT22;39093;52.788;6.940;2023-05-18T05:05:20;6.80;99.90
53208;DHT22;39093;52.788;6.940;2023-05-18T05:07:51;6.90;99.90
53208;DHT22;39093;52.788;6.940;2023-05-18T05:10:19;6.90;99.90
53208;DHT22;39093;52.788;6.940;2023-05-18T05:12:48;7.00;99.90
53208;DHT22;39093;52.788;6.940;2023-05-18T05:15:16;7.10;99.90
53208;DHT22;39093;52.788;6.940;2023-05-18T05:17:43;7.10;99.90
53208;DHT22;39093;52.788;6.940;2023-05-18T05:20:12;7.30;99.90
53208;DHT22;39093;52.788;6.940;2023-05-18T05:22:39;7.30;99.90
53208;DHT22;39093;52.788;6.940;2023-05-18T05:25:06;7.50;99.90
53208;DHT22;39093;52.788;6.940;2023-05-18T05:27:33;7.50;99.90
53208;DHT22;39093;52.788;6.940;2023-05-18T05:30:01;7.60;99.90
53208;DHT22;39093;52.788;6.940;2023-05-18T05:32:27;7.60;99.90
53208;DHT22;39093;52.788;6.940;2023-05-18T05:34:54;7.70;99.90
53208;DHT22;39093;52.788;6.940;2023-05-18T05:37:21;7.80;99.90
53208;DHT22;39093;52.788;6.940;2023-05-18T05:39:48;7.90;99.90
53208;DHT22;39093;52.788;6.940;2023-05-18T05:42:15;7.90;99.90
53208;DHT22;39093;52.788;6.940;2023-05-18T05:44:42;8.00;99.90
53208;DHT22;39093;52.788;6.940;2023-05-18T05:47:09;8.10;99.90
53208;DHT22;39093;52.788;6.940;2023-05-18T05:49:36;8.10;99.90
53208;DHT22;39093;52.788;6.940;2023-05-18T05:52:03;8.30;99.90
53208;DHT22;39093;52.788;6.940;2023-05-18T05:54:30;8.30;99.90
53208;DHT22;39093;52.788;6.940;2023-05-18T05:56:57;8.30;99.90
53208;DHT22;39093;52.788;6.940;2023-05-18T05:59:24;8.40;99.90
53208;DHT22;39093;52.788;6.940;2023-05-18T06:01:51;8.50;99.90
53208;DHT22;39093;52.788;6.940;2023-05-18T06:04:18;8.50;99.90
53208;DHT22;39093;52.788;6.940;2023-05-18T06:06:47;8.50;99.90
53208;DHT22;39093;52.788;6.940;2023-05-18T06:09:14;8.50;99.90
53208;DHT22;39093;52.788;6.940;2023-05-18T06:11:41;8.60;99.90
53208;DHT22;39093;52.788;6.940;2023-05-18T06:14:08;8.70;99.90
53208;DHT22;39093;52.788;6.940;2023-05-18T06:16:35;8.70;99.90
53208;DHT22;39093;52.788;6.940;2023-05-18T06:19:02;8.80;99.90
53208;DHT22;39093;52.788;6.940;2023-05-18T06:21:29;8.90;99.90
53208;DHT22;39093;52.788;6.940;2023-05-18T06:23:57;8.90;99.90
53208;DHT22;39093;52.788;6.940;2023-05-18T06:26:24;9.00;99.90
53208;DHT22;39093;52.788;6.940;2023-05-18T06:28:51;9.00;99.90
53208;DHT22;39093;52.788;6.940;2023-05-18T06:31:18;9.10;99.90
53208;DHT22;39093;52.788;6.940;2023-05-18T06:33:45;9.10;99.90
53208;DHT22;39093;52.788;6.940;2023-05-18T06:36:12;9.20;99.90
53208;DHT22;39093;52.788;6.940;2023-05-18T06:38:39;9.20;99.90
53208;DHT22;39093;52.788;6.940;2023-05-18T06:41:06;9.20;99.90
53208;DHT22;39093;52.788;6.940;2023-05-18T06:43:33;9.30;99.90
53208;DHT22;39093;52.788;6.940;2023-05-18T06:46:00;9.30;99.90
53208;DHT22;39093;52.788;6.940;2023-05-18T06:48:27;9.30;99.90
53208;DHT22;39093;52.788;6.940;2023-05-18T06:50:55;9.30;99.90
53208;DHT22;39093;52.788;6.940;2023-05-18T06:53:21;9.30;99.90
53208;DHT22;39093;52.788;6.940;2023-05-18T06:55:49;9.30;99.90
53208;DHT22;39093;52.788;6.940;2023-05-18T06:58:16;9.40;99.90
53208;DHT22;39093;52.788;6.940;2023-05-18T07:00:43;9.50;99.90
53208;DHT22;39093;52.788;6.940;2023-05-18T07:03:09;9.50;99.90
53208;DHT22;39093;52.788;6.940;2023-05-18T07:05:37;9.60;99.90
53208;DHT22;39093;52.788;6.940;2023-05-18T07:08:05;9.60;99.90
53208;DHT22;39093;52.788;6.940;2023-05-18T07:10:33;9.60;99.90
53208;DHT22;39093;52.788;6.940;2023-05-18T07:13:01;9.60;99.90
53208;DHT22;39093;52.788;6.940;2023-05-18T07:15:28;9.60;99.70
53208;DHT22;39093;52.788;6.940;2023-05-18T07:17:55;9.70;99.90
53208;DHT22;39093;52.788;6.940;2023-05-18T07:20:23;9.70;99.70
53208;DHT22;39093;52.788;6.940;2023-05-18T07:22:52;9.90;99.90
53208;DHT22;39093;52.788;6.940;2023-05-18T07:25:22;10.20;99.80
53208;DHT22;39093;52.788;6.940;2023-05-18T07:27:49;10.40;99.30
53208;DHT22;39093;52.788;6.940;2023-05-18T07:30:20;10.40;98.10
53208;DHT22;39093;52.788;6.940;2023-05-18T07:32:47;10.40;97.80
53208;DHT22;39093;52.788;6.940;2023-05-18T07:35:15;10.50;98.30
53208;DHT22;39093;52.788;6.940;2023-05-18T07:37:42;10.50;98.30
53208;DHT22;39093;52.788;6.940;2023-05-18T07:40:09;10.60;97.90
53208;DHT22;39093;52.788;6.940;2023-05-18T07:42:38;10.60;97.60
53208;DHT22;39093;52.788;6.940;2023-05-18T07:45:06;10.60;97.60
53208;DHT22;39093;52.788;6.940;2023-05-18T07:47:33;10.50;97.90
53208;DHT22;39093;52.788;6.940;2023-05-18T07:50:00;10.50;97.60
53208;DHT22;39093;52.788;6.940;2023-05-18T07:52:27;10.60;97.70
53208;DHT22;39093;52.788;6.940;2023-05-18T07:54:54;10.60;97.60
53208;DHT22;39093;52.788;6.940;2023-05-18T07:57:25;10.70;97.40
53208;DHT22;39093;52.788;6.940;2023-05-18T07:59:52;10.70;97.50
53208;DHT22;39093;52.788;6.940;2023-05-18T08:02:19;10.80;97.50
53208;DHT22;39093;52.788;6.940;2023-05-18T08:04:46;10.90;97.20
53208;DHT22;39093;52.788;6.940;2023-05-18T08:07:13;10.90;97.30
53208;DHT22;39093;52.788;6.940;2023-05-18T08:09:41;11.00;97.00
53208;DHT22;39093;52.788;6.940;2023-05-18T08:12:08;11.00;97.10
53208;DHT22;39093;52.788;6.940;2023-05-18T08:14:35;11.10;97.10
53208;DHT22;39093;52.788;6.940;2023-05-18T08:17:03;11.20;97.10
53208;DHT22;39093;52.788;6.940;2023-05-18T08:19:30;11.30;96.80
53208;DHT22;39093;52.788;6.940;2023-05-18T08:21:57;11.40;97.00
53208;DHT22;39093;52.788;6.940;2023-05-18T08:24:24;11.50;96.50
53208;DHT22;39093;52.788;6.940;2023-05-18T08:26:51;11.50;95.90
53208;DHT22;39093;52.788;6.940;2023-05-18T08:29:18;11.60;96.00
53208;DHT22;39093;52.788;6.940;2023-05-18T08:31:45;11.70;95.80
53208;DHT22;39093;52.788;6.940;2023-05-18T08:34:15;11.80;95.80
53208;DHT22;39093;52.788;6.940;2023-05-18T08:36:42;11.80;95.40
53208;DHT22;39093;52.788;6.940;2023-05-18T08:39:11;11.90;95.70
53208;DHT22;39093;52.788;6.940;2023-05-18T08:42:14;11.90;95.30
53208;DHT22;39093;52.788;6.940;2023-05-18T08:44:49;11.90;95.20
53208;DHT22;39093;52.788;6.940;2023-05-18T08:47:19;11.80;94.10
53208;DHT22;39093;52.788;6.940;2023-05-18T08:49:53;11.90;94.30
53208;DHT22;39093;52.788;6.940;2023-05-18T08:52:24;11.90;94.30
53208;DHT22;39093;52.788;6.940;2023-05-18T08:54:53;12.00;94.90
53208;DHT22;39093;52.788;6.940;2023-05-18T08:57:21;12.10;94.90
53208;DHT22;39093;52.788;6.940;2023-05-18T08:59:51;12.20;94.80
53208;DHT22;39093;52.788;6.940;2023-05-18T09:02:19;12.30;93.60
53208;DHT22;39093;52.788;6.940;2023-05-18T09:04:47;12.30;93.60
53208;DHT22;39093;52.788;6.940;2023-05-18T09:07:15;12.30;93.60
53208;DHT22;39093;52.788;6.940;2023-05-18T09:09:43;12.30;93.50
53208;DHT22;39093;52.788;6.940;2023-05-18T09:12:12;12.40;94.00
53208;DHT22;39093;52.788;6.940;2023-05-18T09:14:40;12.70;94.70
53208;DHT22;39093;52.788;6.940;2023-05-18T09:17:09;13.00;94.30
53208;DHT22;39093;52.788;6.940;2023-05-18T09:19:36;13.30;94.60
53208;DHT22;39093;52.788;6.940;2023-05-18T09:22:03;13.30;92.30
53208;DHT22;39093;52.788;6.940;2023-05-18T09:24:30;13.30;92.90
53208;DHT22;39093;52.788;6.940;2023-05-18T09:26:58;13.50;93.10
53208;DHT22;39093;52.788;6.940;2023-05-18T09:29:25;13.70;93.20
53208;DHT22;39093;52.788;6.940;2023-05-18T09:31:52;13.90;93.40
53208;DHT22;39093;52.788;6.940;2023-05-18T09:34:20;14.20;92.60
53208;DHT22;39093;52.788;6.940;2023-05-18T09:36:49;14.20;90.90
53208;DHT22;39093;52.788;6.940;2023-05-18T09:39:18;14.20;91.20
53208;DHT22;39093;52.788;6.940;2023-05-18T09:41:45;14.20;90.00
53208;DHT22;39093;52.788;6.940;2023-05-18T09:44:12;14.00;90.10
53208;DHT22;39093;52.788;6.940;2023-05-18T09:46:41;14.10;90.80
53208;DHT22;39093;52.788;6.940;2023-05-18T09:49:08;14.40;90.90
53208;DHT22;39093;52.788;6.940;2023-05-18T09:51:38;14.40;90.30
53208;DHT22;39093;52.788;6.940;2023-05-18T09:54:06;14.60;90.40
53208;DHT22;39093;52.788;6.940;2023-05-18T09:56:36;14.80;89.70
53208;DHT22;39093;52.788;6.940;2023-05-18T09:59:11;14.80;87.70
53208;DHT22;39093;52.788;6.940;2023-05-18T10:01:58;15.00;87.70
53208;DHT22;39093;52.788;6.940;2023-05-18T10:04:38;15.20;86.00
53208;DHT22;39093;52.788;6.940;2023-05-18T10:07:13;15.30;87.10
53208;DHT22;39093;52.788;6.940;2023-05-18T10:09:41;15.60;85.80
53208;DHT22;39093;52.788;6.940;2023-05-18T10:12:15;15.70;83.40
53208;DHT22;39093;52.788;6.940;2023-05-18T10:14:43;15.90;82.80
53208;DHT22;39093;52.788;6.940;2023-05-18T10:17:11;16.00;83.50
53208;DHT22;39093;52.788;6.940;2023-05-18T10:19:41;16.20;83.40
53208;DHT22;39093;52.788;6.940;2023-05-18T10:22:10;16.30;82.20
53208;DHT22;39093;52.788;6.940;2023-05-18T10:24:41;16.40;79.30
53208;DHT22;39093;52.788;6.940;2023-05-18T10:27:09;16.30;79.20
53208;DHT22;39093;52.788;6.940;2023-05-18T10:29:37;16.20;79.80
53208;DHT22;39093;52.788;6.940;2023-05-18T10:32:05;16.20;80.80
53208;DHT22;39093;52.788;6.940;2023-05-18T10:34:33;16.20;79.90
53208;DHT22;39093;52.788;6.940;2023-05-18T10:37:04;16.40;79.80
53208;DHT22;39093;52.788;6.940;2023-05-18T10:39:32;16.40;80.90
53208;DHT22;39093;52.788;6.940;2023-05-18T10:42:03;16.60;79.00
53208;DHT22;39093;52.788;6.940;2023-05-18T10:44:35;16.60;76.80
53208;DHT22;39093;52.788;6.940;2023-05-18T10:47:07;16.60;79.10
53208;DHT22;39093;52.788;6.940;2023-05-18T10:49:35;17.00;77.80
53208;DHT22;39093;52.788;6.940;2023-05-18T10:52:02;17.20;78.00
53208;DHT22;39093;52.788;6.940;2023-05-18T10:54:29;17.50;79.90
53208;DHT22;39093;52.788;6.940;2023-05-18T10:56:56;17.70;77.00
53208;DHT22;39093;52.788;6.940;2023-05-18T10:59:24;17.80;76.50
53208;DHT22;39093;52.788;6.940;2023-05-18T11:01:55;17.90;75.70
53208;DHT22;39093;52.788;6.940;2023-05-18T11:04:26;18.00;75.20
53208;DHT22;39093;52.788;6.940;2023-05-18T11:06:57;18.00;73.40
53208;DHT22;39093;52.788;6.940;2023-05-18T11:09:25;18.00;74.80
53208;DHT22;39093;52.788;6.940;2023-05-18T11:11:59;18.10;73.60
53208;DHT22;39093;52.788;6.940;2023-05-18T11:14:30;18.30;74.40
53208;DHT22;39093;52.788;6.940;2023-05-18T11:17:27;18.50;73.50
53208;DHT22;39093;52.788;6.940;2023-05-18T11:22:46;18.50;74.70
53208;DHT22;39093;52.788;6.940;2023-05-18T11:28:01;19.00;73.80
53208;DHT22;39093;52.788;6.940;2023-05-18T11:33:26;19.40;72.30
53208;DHT22;39093;52.788;6.940;2023-05-18T11:38:46;19.80;70.00
53208;DHT22;39093;52.788;6.940;2023-05-18T11:42:00;19.90;67.80
53208;DHT22;39093;52.788;6.940;2023-05-18T11:44:22;20.00;68.80
53208;DHT22;39093;52.788;6.940;2023-05-18T11:46:51;20.00;69.10
53208;DHT22;39093;52.788;6.940;2023-05-18T11:49:36;20.10;69.40
53208;DHT22;39093;52.788;6.940;2023-05-18T11:52:05;20.30;70.30
53208;DHT22;39093;52.788;6.940;2023-05-18T11:54:44;20.40;69.10
53208;DHT22;39093;52.788;6.940;2023-05-18T11:57:14;20.70;67.10
53208;DHT22;39093;52.788;6.940;2023-05-18T11:59:43;20.70;66.50
53208;DHT22;39093;52.788;6.940;2023-05-18T12:02:12;20.70;67.10
53208;DHT22;39093;52.788;6.940;2023-05-18T12:04:52;20.60;66.90
53208;DHT22;39093;52.788;6.940;2023-05-18T12:07:20;20.60;67.70
53208;DHT22;39093;52.788;6.940;2023-05-18T12:09:48;20.70;67.70
53208;DHT22;39093;52.788;6.940;2023-05-18T12:12:16;21.00;67.00
53208;DHT22;39093;52.788;6.940;2023-05-18T12:15:01;21.00;64.60
53208;DHT22;39093;52.788;6.940;2023-05-18T12:17:48;21.00;66.10
53208;DHT22;39093;52.788;6.940;2023-05-18T12:20:17;21.30;64.00
53208;DHT22;39093;52.788;6.940;2023-05-18T12:22:46;21.10;65.70
53208;DHT22;39093;52.788;6.940;2023-05-18T12:25:16;21.60;65.30
53208;DHT22;39093;52.788;6.940;2023-05-18T12:27:44;21.70;64.20
53208;DHT22;39093;52.788;6.940;2023-05-18T12:32:46;21.90;63.00
53208;DHT22;39093;52.788;6.940;2023-05-18T12:35:13;22.00;62.60
53208;DHT22;39093;52.788;6.940;2023-05-18T12:37:44;21.90;63.10
53208;DHT22;39093;52.788;6.940;2023-05-18T12:40:13;22.00;65.10
53208;DHT22;39093;52.788;6.940;2023-05-18T12:42:54;22.10;63.10
53208;DHT22;39093;52.788;6.940;2023-05-18T12:45:29;22.10;62.80
53208;DHT22;39093;52.788;6.940;2023-05-18T12:48:10;22.20;63.50
53208;DHT22;39093;52.788;6.940;2023-05-18T12:50:50;22.60;63.60
53208;DHT22;39093;52.788;6.940;2023-05-18T12:53:17;23.00;60.50
53208;DHT22;39093;52.788;6.940;2023-05-18T12:55:44;23.00;59.70
53208;DHT22;39093;52.788;6.940;2023-05-18T12:58:12;23.00;60.60
53208;DHT22;39093;52.788;6.940;2023-05-18T13:00:44;23.20;62.30
53208;DHT22;39093;52.788;6.940;2023-05-18T13:03:13;23.50;61.80
53208;DHT22;39093;52.788;6.940;2023-05-18T13:05:43;23.50;60.90
53208;DHT22;39093;52.788;6.940;2023-05-18T13:08:15;23.60;59.20
53208;DHT22;39093;52.788;6.940;2023-05-18T13:10:48;23.50;58.90
53208;DHT22;39093;52.788;6.940;2023-05-18T13:13:35;23.70;58.70
53208;DHT22;39093;52.788;6.940;2023-05-18T13:16:02;23.70;59.20
53208;DHT22;39093;52.788;6.940;2023-05-18T13:18:29;24.00;59.00
53208;DHT22;39093;52.788;6.940;2023-05-18T13:20:56;24.10;59.10
53208;DHT22;39093;52.788;6.940;2023-05-18T13:23:28;24.30;57.50
53208;DHT22;39093;52.788;6.940;2023-05-18T13:25:56;24.00;57.60
53208;DHT22;39093;52.788;6.940;2023-05-18T13:28:26;23.90;56.80
53208;DHT22;39093;52.788;6.940;2023-05-18T13:30:52;24.00;56.80
53208;DHT22;39093;52.788;6.940;2023-05-18T13:33:19;24.40;57.00
53208;DHT22;39093;52.788;6.940;2023-05-18T13:35:47;24.40;55.90
53208;DHT22;39093;52.788;6.940;2023-05-18T13:38:15;24.40;56.60
53208;DHT22;39093;52.788;6.940;2023-05-18T13:40:42;24.60;57.30
53208;DHT22;39093;52.788;6.940;2023-05-18T13:43:09;24.90;56.80
53208;DHT22;39093;52.788;6.940;2023-05-18T13:45:39;25.20;56.40
53208;DHT22;39093;52.788;6.940;2023-05-18T13:48:06;25.60;56.40
53208;DHT22;39093;52.788;6.940;2023-05-18T13:50:37;25.70;55.30
53208;DHT22;39093;52.788;6.940;2023-05-18T13:53:04;25.70;56.10
53208;DHT22;39093;52.788;6.940;2023-05-18T13:55:32;26.00;54.60
53208;DHT22;39093;52.788;6.940;2023-05-18T13:57:59;25.90;53.50
53208;DHT22;39093;52.788;6.940;2023-05-18T14:00:26;25.90;53.10
53208;DHT22;39093;52.788;6.940;2023-05-18T14:02:54;25.80;54.60
53208;DHT22;39093;52.788;6.940;2023-05-18T14:05:22;26.00;54.10
53208;DHT22;39093;52.788;6.940;2023-05-18T14:07:50;26.10;54.30
53208;DHT22;39093;52.788;6.940;2023-05-18T14:10:19;26.30;54.40
53208;DHT22;39093;52.788;6.940;2023-05-18T14:12:47;26.60;52.50
53208;DHT22;39093;52.788;6.940;2023-05-18T14:15:15;26.50;53.10
53208;DHT22;39093;52.788;6.940;2023-05-18T14:17:42;26.60;52.00
53208;DHT22;39093;52.788;6.940;2023-05-18T14:20:11;26.60;53.30
53208;DHT22;39093;52.788;6.940;2023-05-18T14:22:38;26.60;52.20
53208;DHT22;39093;52.788;6.940;2023-05-18T14:25:06;26.80;53.00
53208;DHT22;39093;52.788;6.940;2023-05-18T14:27:33;27.20;52.40
53208;DHT22;39093;52.788;6.940;2023-05-18T14:30:00;26.80;52.70
53208;DHT22;39093;52.788;6.940;2023-05-18T14:32:27;27.20;51.70
53208;DHT22;39093;52.788;6.940;2023-05-18T14:34:54;27.20;52.80
53208;DHT22;39093;52.788;6.940;2023-05-18T14:37:23;27.60;52.00
53208;DHT22;39093;52.788;6.940;2023-05-18T14:39:50;27.30;51.00
53208;DHT22;39093;52.788;6.940;2023-05-18T14:42:17;26.70;51.80
53208;DHT22;39093;52.788;6.940;2023-05-18T14:44:44;26.60;51.10
53208;DHT22;39093;52.788;6.940;2023-05-18T14:47:12;26.30;52.90
53208;DHT22;39093;52.788;6.940;2023-05-18T14:49:39;26.20;52.90
53208;DHT22;39093;52.788;6.940;2023-05-18T14:52:06;26.20;52.90
53208;DHT22;39093;52.788;6.940;2023-05-18T14:54:33;26.20;53.50
53208;DHT22;39093;52.788;6.940;2023-05-18T14:57:00;26.00;51.20
53208;DHT22;39093;52.788;6.940;2023-05-18T14:59:27;25.60;50.60
53208;DHT22;39093;52.788;6.940;2023-05-18T15:01:54;25.30;51.00
53208;DHT22;39093;52.788;6.940;2023-05-18T15:04:21;25.10;52.70
53208;DHT22;39093;52.788;6.940;2023-05-18T15:06:49;25.00;53.50
53208;DHT22;39093;52.788;6.940;2023-05-18T15:09:16;25.00;52.90
53208;DHT22;39093;52.788;6.940;2023-05-18T15:11:43;25.20;53.30
53208;DHT22;39093;52.788;6.940;2023-05-18T15:14:10;25.30;53.50
53208;DHT22;39093;52.788;6.940;2023-05-18T15:16:37;25.30;51.80
53208;DHT22;39093;52.788;6.940;2023-05-18T15:19:04;25.20;52.10
53208;DHT22;39093;52.788;6.940;2023-05-18T15:21:31;25.10;52.30
53208;DHT22;39093;52.788;6.940;2023-05-18T15:23:58;25.10;51.70
53208;DHT22;39093;52.788;6.940;2023-05-18T15:26:25;25.10;51.90
53208;DHT22;39093;52.788;6.940;2023-05-18T15:28:53;25.20;53.10
53208;DHT22;39093;52.788;6.940;2023-05-18T15:31:20;25.30;51.60
53208;DHT22;39093;52.788;6.940;2023-05-18T15:33:47;25.30;51.30
53208;DHT22;39093;52.788;6.940;2023-05-18T15:36:14;25.20;52.10
53208;DHT22;39093;52.788;6.940;2023-05-18T15:38:40;25.30;53.10
53208;DHT22;39093;52.788;6.940;2023-05-18T15:41:07;25.00;53.00
53208;DHT22;39093;52.788;6.940;2023-05-18T15:43:34;24.60;52.90
53208;DHT22;39093;52.788;6.940;2023-05-18T15:46:02;23.70;53.40
53208;DHT22;39093;52.788;6.940;2023-05-18T15:48:29;22.80;54.10
53208;DHT22;39093;52.788;6.940;2023-05-18T15:50:56;22.00;54.70
53208;DHT22;39093;52.788;6.940;2023-05-18T15:53:23;21.70;55.00
53208;DHT22;39093;52.788;6.940;2023-05-18T15:55:53;21.40;55.10
53208;DHT22;39093;52.788;6.940;2023-05-18T15:58:24;21.00;55.30
53208;DHT22;39093;52.788;6.940;2023-05-18T16:00:52;20.60;55.50
53208;DHT22;39093;52.788;6.940;2023-05-18T16:03:19;20.10;56.20
53208;DHT22;39093;52.788;6.940;2023-05-18T16:05:47;19.80;57.00
53208;DHT22;39093;52.788;6.940;2023-05-18T16:08:14;19.60;57.50
53208;DHT22;39093;52.788;6.940;2023-05-18T16:10:40;19.50;58.30
53208;DHT22;39093;52.788;6.940;2023-05-18T16:13:10;19.40;59.30
53208;DHT22;39093;52.788;6.940;2023-05-18T16:15:37;19.30;59.80